Time;durP1;ratioP1;P1;durP2;ratioP2;P2;SDS_P1;SDS_P2;PMS_P1;PMS_P2;Temp;Humidity;BMP_temperature;BMP_pressure;BME280_temperature;BME280_humidity;BME280_pressure;Samples;Min_cycle;Max_cycle;Signal;HPM_P1;HPM_P2
2021/08/05 00:02:19;;;;;;;6.55;5.80;;;23.20;92.10;;;;;;5095637;28;20066;-80
2021/08/05 00:04:44;;;;;;;6.78;5.88;;;23.20;92.00;;;;;;5095871;28;20027;-80
2021/08/05 00:07:13;;;;;;;7.35;5.70;;;23.20;91.80;;;;;;5095667;28;20016;-80
2021/08/05 00:09:39;;;;;;;10.48;5.75;;;23.20;91.50;;;;;;5095810;28;20035;-80
2021/08/05 00:12:07;;;;;;;6.97;5.60;;;23.20;90.80;;;;;;5095588;28;20070;-80
2021/08/05 00:14:32;;;;;;;7.13;5.65;;;23.20;90.90;;;;;;5095554;28;20108;-81
2021/08/05 00:16:58;;;;;;;5.60;5.00;;;23.20;91.10;;;;;;5095501;28;20055;-82
2021/08/05 00:19:24;;;;;;;5.82;5.20;;;23.20;90.90;;;;;;5095641;28;20020;-81
2021/08/05 00:21:49;;;;;;;5.07;4.57;;;23.20;90.90;;;;;;5095281;28;20032;-81
2021/08/05 00:24:15;;;;;;;7.13;5.32;;;23.30;91.00;;;;;;5095610;28;20016;-81
2021/08/05 00:26:41;;;;;;;5.20;4.70;;;23.20;90.50;;;;;;5095541;28;20020;-81
2021/08/05 00:29:07;;;;;;;5.10;4.60;;;23.30;90.30;;;;;;5095466;28;20025;-82
2021/08/05 00:31:32;;;;;;;6.55;4.80;;;23.20;90.10;;;;;;5095459;28;20466;-83
2021/08/05 00:33:59;;;;;;;5.50;4.88;;;23.20;89.90;;;;;;5095455;28;20426;-81
2021/08/05 00:36:25;;;;;;;5.38;4.43;;;23.20;88.50;;;;;;5095143;28;20364;-80
2021/08/05 00:38:50;;;;;;;6.38;4.78;;;23.20;88.30;;;;;;5095083;28;20027;-82
2021/08/05 00:41:16;;;;;;;5.00;4.50;;;23.20;87.80;;;;;;5084611;28;20036;-85
2021/08/05 00:43:41;;;;;;;4.63;4.10;;;23.20;87.00;;;;;;5074666;28;20104;-82
2021/08/05 00:46:07;;;;;;;4.63;4.22;;;23.20;86.70;;;;;;5074663;28;20016;-82
2021/08/05 00:48:33;;;;;;;5.85;4.30;;;23.30;87.00;;;;;;5074887;28;20039;-82
2021/08/05 00:50:59;;;;;;;5.70;4.05;;;23.30;87.10;;;;;;5074824;28;20451;-82
2021/08/05 00:53:26;;;;;;;5.22;4.47;;;23.30;86.10;;;;;;5075147;28;20048;-82
2021/08/05 00:55:51;;;;;;;4.53;4.10;;;23.30;85.80;;;;;;5074427;28;20021;-82
2021/08/05 00:58:17;;;;;;;5.55;4.70;;;23.30;85.10;;;;;;5074419;28;20036;-82
2021/08/05 01:00:51;;;;;;;5.22;4.38;;;23.30;86.20;;;;;;5083922;28;20048;-81
2021/08/05 01:03:30;;;;;;;6.10;4.32;;;23.20;84.80;;;;;;5094932;28;20134;-82
2021/08/05 01:06:23;;;;;;;5.93;4.50;;;23.30;85.40;;;;;;5094601;28;20145;-82
2021/08/05 01:09:15;;;;;;;5.47;4.25;;;23.20;82.20;;;;;;5094748;28;20016;-83
2021/08/05 01:11:49;;;;;;;5.50;4.15;;;23.30;84.40;;;;;;5094438;28;20065;-83
2021/08/05 01:14:18;;;;;;;5.13;4.63;;;23.20;84.00;;;;;;5094704;28;20055;-83
2021/08/05 01:16:46;;;;;;;5.22;4.50;;;23.20;83.90;;;;;;5094314;28;20020;-83
2021/08/05 01:19:40;;;;;;;6.03;4.57;;;23.20;82.70;;;;;;5094468;28;20416;-86
2021/08/05 01:22:15;;;;;;;5.40;4.88;;;23.20;79.30;;;;;;5083045;28;20051;-85
2021/08/05 01:24:54;;;;;;;4.70;4.30;;;23.20;79.40;;;;;;5094804;28;20024;-91
2021/08/05 01:27:22;;;;;;;5.32;4.90;;;23.10;80.60;;;;;;5095168;28;20366;-92
2021/08/05 01:29:48;;;;;;;5.50;4.85;;;23.20;81.20;;;;;;5095557;28;20513;-90
2021/08/05 01:32:15;;;;;;;6.10;4.90;;;23.00;82.50;;;;;;5095143;28;20055;-91
2021/08/05 01:34:41;;;;;;;4.63;4.03;;;23.00;84.00;;;;;;5093593;28;20024;-90
2021/08/05 01:37:08;;;;;;;5.97;4.88;;;22.90;85.40;;;;;;5093602;28;20371;-91
2021/08/05 01:39:34;;;;;;;6.47;5.25;;;22.90;85.00;;;;;;5085132;28;20135;-91
2021/08/05 01:42:01;;;;;;;6.10;4.78;;;22.80;86.70;;;;;;5074385;28;20538;-91
2021/08/05 01:44:28;;;;;;;5.60;5.05;;;22.80;87.10;;;;;;5074632;28;20095;-91
2021/08/05 01:46:54;;;;;;;7.68;4.90;;;22.70;87.50;;;;;;5073143;28;20020;-88
2021/08/05 01:49:21;;;;;;;6.90;6.20;;;22.70;88.20;;;;;;5074399;28;20024;-85
2021/08/05 01:51:48;;;;;;;6.90;6.10;;;22.60;90.10;;;;;;5074119;28;20055;-89
2021/08/05 01:54:15;;;;;;;8.32;6.80;;;22.60;90.50;;;;;;5073041;28;20029;-89
2021/08/05 01:56:40;;;;;;;7.78;6.82;;;22.60;91.00;;;;;;5072737;28;20086;-89
2021/08/05 01:59:07;;;;;;;9.60;7.43;;;22.60;91.50;;;;;;5074491;28;20032;-89
2021/08/05 02:01:32;;;;;;;9.80;7.63;;;22.60;91.90;;;;;;5092744;28;20125;-89
2021/08/05 02:04:01;;;;;;;8.60;7.30;;;22.60;92.40;;;;;;5092911;28;20466;-89
2021/08/05 02:06:28;;;;;;;9.98;8.00;;;22.60;92.70;;;;;;5092957;28;20378;-89
2021/08/05 02:09:00;;;;;;;10.95;8.00;;;22.60;92.80;;;;;;5094052;28;20044;-89
2021/08/05 02:11:33;;;;;;;9.88;8.10;;;22.60;92.90;;;;;;5094234;28;20134;-89
2021/08/05 02:14:01;;;;;;;9.32;7.88;;;22.70;93.20;;;;;;5093139;28;20032;-89
2021/08/05 02:16:29;;;;;;;7.55;6.85;;;22.70;93.20;;;;;;5094004;28;20028;-90
2021/08/05 02:18:55;;;;;;;9.55;7.95;;;22.70;93.30;;;;;;5094556;28;20020;-90
2021/08/05 02:21:23;;;;;;;9.65;6.97;;;22.70;93.30;;;;;;5094245;28;20031;-89
2021/08/05 02:23:52;;;;;;;10.88;8.18;;;22.70;93.40;;;;;;5098603;28;20047;-89
2021/08/05 02:26:19;;;;;;;9.02;7.30;;;22.80;93.70;;;;;;5096534;28;20016;-89
2021/08/05 02:28:46;;;;;;;8.40;7.00;;;22.70;93.80;;;;;;5098011;28;20029;-90
2021/08/05 02:31:13;;;;;;;8.10;7.07;;;22.80;93.80;;;;;;5098062;28;20478;-89
2021/08/05 02:33:40;;;;;;;7.93;6.50;;;22.80;93.80;;;;;;5098181;28;20064;-89
2021/08/05 02:36:06;;;;;;;10.30;7.45;;;22.80;93.80;;;;;;5098127;28;20060;-89
2021/08/05 02:38:32;;;;;;;7.15;6.45;;;22.80;93.90;;;;;;5097884;28;20527;-89
2021/08/05 02:40:57;;;;;;;8.02;7.05;;;22.80;93.90;;;;;;5097753;28;20032;-89
2021/08/05 02:43:26;;;;;;;7.65;6.80;;;22.80;93.90;;;;;;5098531;28;20031;-90
2021/08/05 02:45:53;;;;;;;7.63;6.75;;;22.80;94.00;;;;;;5096784;28;20040;-89
2021/08/05 02:48:19;;;;;;;9.73;7.15;;;22.80;94.10;;;;;;5097997;28;20027;-90
2021/08/05 02:50:45;;;;;;;7.75;6.75;;;22.80;94.40;;;;;;5097800;28;20026;-89
2021/08/05 02:53:12;;;;;;;8.18;6.90;;;22.80;94.30;;;;;;5097633;28;20023;-90
2021/08/05 02:55:38;;;;;;;8.45;7.20;;;22.80;94.40;;;;;;5097821;28;20056;-90
2021/08/05 02:58:04;;;;;;;7.90;6.93;;;22.80;94.40;;;;;;5097801;28;20024;-90
2021/08/05 03:00:30;;;;;;;9.27;7.18;;;22.80;94.40;;;;;;5097316;28;20047;-90
2021/08/05 03:02:56;;;;;;;9.90;7.28;;;22.90;94.40;;;;;;5097563;28;20370;-90
2021/08/05 03:05:22;;;;;;;8.45;7.65;;;22.90;94.40;;;;;;5097410;28;20024;-90
2021/08/05 03:07:48;;;;;;;9.43;7.28;;;22.90;94.40;;;;;;5097410;28;20024;-90
2021/08/05 03:10:17;;;;;;;12.85;8.80;;;22.90;94.40;;;;;;5097561;28;20035;-90
2021/08/05 03:12:44;;;;;;;8.23;7.43;;;22.90;94.50;;;;;;5097278;28;20039;-90
2021/08/05 03:15:10;;;;;;;9.52;8.00;;;22.90;94.50;;;;;;5097292;28;20028;-89
2021/08/05 03:17:37;;;;;;;9.82;8.40;;;23.00;94.50;;;;;;5097145;28;20023;-89
2021/08/05 03:20:06;;;;;;;11.77;8.40;;;22.90;94.60;;;;;;5095914;28;20059;-90
2021/08/05 03:22:31;;;;;;;14.52;10.50;;;23.00;94.50;;;;;;5079501;28;20027;-90
2021/08/05 03:24:57;;;;;;;17.25;11.95;;;23.00;94.40;;;;;;5079404;28;20020;-90
2021/08/05 18:14:17;;;;;;;12.23;9.35;;;26.90;81.10;;;;;;5111324;27;20442;-85
2021/08/05 18:16:43;;;;;;;17.45;9.75;;;26.80;80.50;;;;;;5111385;28;20024;-86
2021/08/05 18:19:09;;;;;;;14.30;10.32;;;26.80;81.50;;;;;;5111275;28;20017;-87
2021/08/05 18:21:34;;;;;;;19.77;10.70;;;26.70;81.90;;;;;;5111049;28;20020;-84
2021/08/05 18:24:00;;;;;;;13.60;10.23;;;26.70;82.50;;;;;;5111248;28;20401;-86
2021/08/05 18:26:26;;;;;;;15.88;10.38;;;26.80;82.90;;;;;;5110973;28;20031;-86
2021/08/05 18:28:52;;;;;;;13.70;9.93;;;26.80;82.70;;;;;;5110987;28;20026;-90
2021/08/05 18:31:18;;;;;;;14.73;10.57;;;26.80;82.60;;;;;;5111187;28;20431;-84
2021/08/05 18:33:44;;;;;;;14.52;12.73;;;26.80;82.80;;;;;;5110938;28;20023;-82
2021/08/05 18:36:10;;;;;;;19.83;10.75;;;26.80;83.00;;;;;;5111057;28;20467;-84
2021/08/05 18:38:35;;;;;;;16.90;10.73;;;26.80;83.10;;;;;;5111518;28;20027;-93
2021/08/05 18:41:04;;;;;;;13.23;9.13;;;26.80;82.90;;;;;;5110204;28;20058;-92
2021/08/05 18:43:29;;;;;;;25.67;14.10;;;26.80;84.00;;;;;;5111763;28;20016;-90
2021/08/05 18:45:55;;;;;;;14.02;9.63;;;26.80;83.90;;;;;;5111085;28;20035;-83
2021/08/05 18:48:21;;;;;;;13.38;11.95;;;26.80;84.90;;;;;;5110971;28;20028;-84
2021/08/05 18:50:50;;;;;;;13.52;9.63;;;26.80;84.80;;;;;;5112531;28;20028;-86
2021/08/05 18:53:16;;;;;;;13.27;8.90;;;26.80;85.20;;;;;;5111601;28;20055;-86
2021/08/05 18:55:42;;;;;;;10.70;8.27;;;26.80;85.20;;;;;;5113339;28;20023;-94
2021/08/05 18:58:07;;;;;;;15.18;8.85;;;26.80;85.60;;;;;;5111013;28;20085;-84
2021/08/05 19:00:33;;;;;;;13.57;9.85;;;26.70;86.00;;;;;;5111486;28;20095;-89
2021/08/05 19:02:59;;;;;;;14.02;8.45;;;26.70;85.80;;;;;;5111520;28;20382;-88
2021/08/05 19:05:24;;;;;;;14.20;9.32;;;26.70;86.20;;;;;;5111599;28;20023;-93
2021/08/05 19:07:50;;;;;;;14.25;8.57;;;26.70;86.20;;;;;;5111591;28;20028;-95
2021/08/05 19:10:16;;;;;;;11.50;8.90;;;26.60;86.40;;;;;;5110799;28;20035;-84
2021/08/05 19:12:43;;;;;;;11.35;8.25;;;26.60;86.30;;;;;;5110231;28;20505;-95
2021/08/05 19:15:13;;;;;;;10.95;9.77;;;26.60;85.80;;;;;;5111157;28;20382;-89
2021/08/05 19:17:39;;;;;;;12.43;9.23;;;26.60;85.40;;;;;;5110839;28;20012;-84
2021/08/05 19:20:08;;;;;;;11.75;8.45;;;26.60;85.20;;;;;;5110936;28;20034;-90
2021/08/05 19:22:34;;;;;;;12.07;8.05;;;26.60;85.30;;;;;;5110961;28;20034;-88
2021/08/05 19:25:00;;;;;;;13.90;8.38;;;26.50;85.10;;;;;;5100215;28;20020;-87
2021/08/05 19:27:27;;;;;;;11.73;8.30;;;26.50;85.00;;;;;;5096959;28;20182;-88
2021/08/05 19:29:53;;;;;;;14.85;8.60;;;26.50;84.90;;;;;;5096445;28;20024;-85
2021/08/05 19:32:19;;;;;;;13.63;8.55;;;26.50;85.00;;;;;;5096225;28;20024;-86
2021/08/05 19:34:45;;;;;;;11.32;8.82;;;26.50;85.10;;;;;;5096292;28;20035;-90
2021/08/05 19:37:11;;;;;;;16.27;8.52;;;26.40;85.30;;;;;;5096247;28;20107;-87
2021/08/05 19:39:37;;;;;;;13.00;8.38;;;26.50;85.00;;;;;;5096356;28;20051;-86
2021/08/05 19:42:02;;;;;;;11.98;8.75;;;26.40;85.30;;;;;;5096069;28;20035;-89
2021/08/05 19:44:28;;;;;;;15.52;9.00;;;26.40;85.20;;;;;;5095909;28;20024;-88
2021/08/05 19:46:54;;;;;;;8.82;7.72;;;26.40;85.00;;;;;;5095951;28;20020;-86
2021/08/05 19:49:20;;;;;;;10.73;7.30;;;26.40;84.90;;;;;;5095820;28;20020;-87
2021/08/05 19:51:45;;;;;;;14.98;8.15;;;26.40;84.90;;;;;;5095734;28;20386;-87
2021/08/05 19:54:11;;;;;;;12.88;8.63;;;26.40;85.70;;;;;;5095592;28;20039;-86
2021/08/05 19:56:37;;;;;;;10.57;8.90;;;26.30;85.90;;;;;;5095560;28;20418;-86
2021/08/05 19:59:02;;;;;;;12.73;8.93;;;26.30;86.10;;;;;;5095937;28;20077;-87
2021/08/05 20:01:28;;;;;;;11.30;8.95;;;26.30;86.50;;;;;;5095800;28;20489;-86
2021/08/05 20:03:54;;;;;;;13.52;9.40;;;26.30;86.60;;;;;;5096044;28;20028;-86
2021/08/05 20:06:19;;;;;;;11.05;8.63;;;26.30;86.80;;;;;;5095823;28;20028;-86
2021/08/05 20:08:45;;;;;;;12.13;9.07;;;26.30;86.70;;;;;;5095727;28;20028;-87
2021/08/05 20:11:12;;;;;;;11.85;8.95;;;26.20;86.70;;;;;;5095290;28;20026;-88
2021/08/05 20:13:39;;;;;;;15.52;9.77;;;26.20;87.40;;;;;;5095580;28;20075;-88
2021/08/05 20:16:05;;;;;;;14.20;8.85;;;26.10;87.10;;;;;;5095895;28;20020;-88
2021/08/05 20:18:30;;;;;;;12.93;8.38;;;26.00;87.50;;;;;;5095532;28;20409;-87
2021/08/05 20:20:56;;;;;;;12.18;9.25;;;26.00;87.10;;;;;;5095646;28;20020;-89
2021/08/05 20:23:25;;;;;;;12.30;8.88;;;26.00;87.30;;;;;;5095782;28;20032;-88
2021/08/05 20:25:51;;;;;;;13.43;8.90;;;26.00;87.20;;;;;;5095504;28;20024;-88
2021/08/05 20:28:17;;;;;;;15.25;9.52;;;25.90;87.00;;;;;;5095804;28;20021;-88
2021/08/05 20:30:43;;;;;;;11.15;8.35;;;25.90;87.30;;;;;;5095331;28;20043;-87
2021/08/05 20:33:11;;;;;;;10.10;9.00;;;25.80;87.50;;;;;;5095777;28;20063;-88
2021/08/05 20:35:41;;;;;;;13.80;8.73;;;25.80;87.70;;;;;;5094756;28;20043;-87
2021/08/05 20:38:07;;;;;;;17.48;9.43;;;25.70;88.20;;;;;;5095127;28;20024;-88
2021/08/05 20:40:36;;;;;;;12.52;8.88;;;25.70;88.70;;;;;;5095279;28;20032;-88
2021/08/05 20:43:02;;;;;;;9.30;8.30;;;25.60;88.80;;;;;;5095410;28;20028;-87
2021/08/05 20:45:27;;;;;;;14.00;9.10;;;25.60;89.30;;;;;;5094981;28;20362;-87
2021/08/05 20:47:53;;;;;;;11.07;8.68;;;25.60;89.00;;;;;;5095375;28;20099;-87
2021/08/05 20:50:19;;;;;;;11.68;8.13;;;25.50;88.70;;;;;;5095236;28;20028;-88
2021/08/05 20:52:45;;;;;;;13.70;8.23;;;25.60;88.50;;;;;;5094807;28;20077;-88
2021/08/05 20:55:11;;;;;;;12.02;7.65;;;25.60;88.70;;;;;;5095177;28;20093;-87
2021/08/05 20:57:37;;;;;;;11.23;9.02;;;25.50;88.70;;;;;;5094805;28;20016;-87
2021/08/05 21:00:04;;;;;;;11.07;8.38;;;25.50;88.90;;;;;;5095066;28;20099;-88
2021/08/05 21:02:30;;;;;;;13.18;8.00;;;25.40;89.30;;;;;;5094855;28;20085;-87
2021/08/05 21:04:56;;;;;;;10.40;7.97;;;25.40;89.20;;;;;;5093405;28;20466;-87
2021/08/05 21:07:21;;;;;;;10.45;8.45;;;25.40;88.90;;;;;;5094718;28;20024;-87
2021/08/05 21:09:47;;;;;;;10.98;8.05;;;25.40;89.20;;;;;;5094945;28;20032;-87
2021/08/05 21:12:13;;;;;;;9.85;8.52;;;25.40;89.40;;;;;;5094218;28;20090;-87
2021/08/05 21:14:38;;;;;;;9.93;8.20;;;25.40;89.50;;;;;;5094343;28;20024;-87
2021/08/05 21:17:04;;;;;;;12.32;8.90;;;25.40;89.50;;;;;;5094505;28;20020;-87
2021/08/05 21:19:30;;;;;;;10.40;8.85;;;25.30;89.50;;;;;;5094972;28;20442;-87
2021/08/05 21:21:56;;;;;;;18.95;9.40;;;25.30;89.70;;;;;;5094988;28;20024;-88
2021/08/05 21:24:21;;;;;;;11.88;8.82;;;25.30;89.70;;;;;;5094300;28;20489;-87
2021/08/05 21:26:47;;;;;;;10.40;8.82;;;25.20;90.10;;;;;;5094376;28;20421;-87
2021/08/05 21:29:13;;;;;;;12.30;8.45;;;25.20;90.10;;;;;;5094248;28;20077;-87
2021/08/05 21:31:39;;;;;;;10.43;7.93;;;25.20;90.00;;;;;;5094293;28;20028;-87
2021/08/05 21:34:05;;;;;;;11.73;8.15;;;25.20;89.80;;;;;;5094184;28;20035;-87
2021/08/05 21:36:30;;;;;;;10.95;8.27;;;25.20;90.00;;;;;;5094485;28;20028;-86
2021/08/05 21:38:56;;;;;;;14.25;9.02;;;25.20;89.90;;;;;;5094110;28;20028;-87
2021/08/05 21:41:23;;;;;;;10.43;8.50;;;25.10;90.00;;;;;;5094770;28;20110;-86
2021/08/05 21:43:48;;;;;;;12.85;8.60;;;25.10;89.70;;;;;;5094748;28;20080;-87
2021/08/05 21:46:14;;;;;;;11.63;8.82;;;25.10;90.00;;;;;;5094325;28;20403;-87
2021/08/05 21:48:40;;;;;;;10.52;8.23;;;25.10;89.90;;;;;;5093787;28;20493;-86
2021/08/05 21:51:06;;;;;;;11.10;9.32;;;25.10;90.00;;;;;;5093977;28;20016;-86
2021/08/05 21:53:32;;;;;;;10.93;9.18;;;25.10;90.00;;;;;;5092676;28;20027;-86
2021/08/05 21:55:57;;;;;;;10.63;9.50;;;25.00;90.30;;;;;;5094060;28;20659;-86
2021/08/05 21:58:23;;;;;;;10.45;9.00;;;25.00;90.40;;;;;;5093875;28;20111;-86
2021/08/05 22:00:49;;;;;;;10.45;9.25;;;25.00;90.30;;;;;;5093872;28;20099;-86
2021/08/05 22:03:14;;;;;;;13.38;9.18;;;25.00;90.40;;;;;;5093880;28;20059;-86
2021/08/05 22:05:40;;;;;;;11.00;8.95;;;25.00;90.40;;;;;;5093838;28;20074;-87
2021/08/05 22:08:06;;;;;;;10.38;9.25;;;25.00;90.40;;;;;;5094060;28;20036;-86
2021/08/05 22:10:32;;;;;;;13.55;10.30;;;25.00;90.40;;;;;;5094306;28;20020;-86
2021/08/05 22:12:58;;;;;;;14.32;10.60;;;25.00;90.70;;;;;;5093494;28;20056;-87
2021/08/05 22:15:24;;;;;;;21.83;11.07;;;24.90;90.70;;;;;;5094053;28;20111;-86
2021/08/05 22:17:50;;;;;;;12.10;10.00;;;24.90;90.80;;;;;;5093796;28;20077;-86
2021/08/05 22:20:15;;;;;;;12.48;9.88;;;24.90;90.80;;;;;;5093688;28;20020;-87
2021/08/05 22:22:41;;;;;;;16.13;11.82;;;24.90;90.80;;;;;;5093719;28;20056;-86
2021/08/05 22:25:08;;;;;;;18.75;11.75;;;24.80;90.90;;;;;;5093673;28;20035;-87
2021/08/05 22:27:34;;;;;;;12.05;10.60;;;24.80;91.00;;;;;;5093913;28;20024;-87
2021/08/05 22:29:59;;;;;;;15.10;10.98;;;24.90;90.90;;;;;;5093901;28;20034;-87
2021/08/05 22:32:25;;;;;;;15.57;11.85;;;24.80;91.00;;;;;;5093780;28;20031;-87
2021/08/05 22:34:51;;;;;;;14.30;11.30;;;24.80;90.90;;;;;;5093534;28;20585;-87
2021/08/05 22:37:17;;;;;;;16.63;11.30;;;24.80;91.00;;;;;;5093596;28;20024;-88
2021/08/05 22:39:43;;;;;;;15.55;11.63;;;24.80;91.00;;;;;;5093522;28;20463;-87
2021/08/05 22:42:11;;;;;;;12.10;9.38;;;24.80;91.30;;;;;;5093457;28;20028;-87
2021/08/05 22:44:38;;;;;;;11.38;10.18;;;24.80;91.00;;;;;;5093740;28;20375;-86
2021/08/05 22:47:04;;;;;;;13.73;10.88;;;24.80;91.20;;;;;;5093418;28;20077;-87
2021/08/05 22:49:29;;;;;;;15.80;10.00;;;24.70;91.60;;;;;;5093719;28;20408;-86
2021/08/05 22:51:55;;;;;;;15.43;9.95;;;24.80;91.30;;;;;;5093678;28;20028;-86
2021/08/05 22:54:21;;;;;;;19.25;10.90;;;24.80;91.20;;;;;;5093272;28;20090;-86
2021/08/05 22:56:47;;;;;;;32.75;15.02;;;24.80;91.20;;;;;;5093215;28;20067;-87
2021/08/05 22:59:13;;;;;;;40.55;16.00;;;24.70;91.50;;;;;;5092838;28;20039;-88
2021/08/05 23:01:38;;;;;;;47.35;18.63;;;24.70;91.30;;;;;;5097481;28;20436;-87
2021/08/05 23:04:04;;;;;;;42.47;16.40;;;24.70;91.40;;;;;;5097389;28;20055;-86
2021/08/05 23:06:30;;;;;;;57.67;21.98;;;24.80;91.30;;;;;;5097636;28;20465;-86
2021/08/05 23:08:55;;;;;;;74.47;26.42;;;24.80;91.30;;;;;;5097355;28;20415;-84
2021/08/05 23:11:21;;;;;;;87.72;26.10;;;24.70;91.30;;;;;;5096992;28;20378;-85
2021/08/05 23:13:46;;;;;;;134.57;36.92;;;24.80;91.30;;;;;;5096564;28;20059;-84
2021/08/05 23:16:12;;;;;;;115.13;33.13;;;24.70;91.60;;;;;;5096779;28;20150;-83
2021/08/05 23:18:38;;;;;;;114.93;33.50;;;24.70;91.40;;;;;;5097458;28;20032;-89
2021/08/05 23:21:04;;;;;;;141.32;39.42;;;24.70;91.30;;;;;;5097419;28;20039;-87
2021/08/05 23:23:29;;;;;;;142.35;37.63;;;24.70;91.20;;;;;;5097515;28;20043;-90
2021/08/05 23:25:55;;;;;;;109.45;30.15;;;24.70;91.30;;;;;;5096348;28;20118;-90
2021/08/05 23:28:21;;;;;;;116.10;31.33;;;24.70;91.20;;;;;;5097526;28;20024;-90
2021/08/05 23:30:46;;;;;;;97.10;28.98;;;24.70;91.20;;;;;;5097272;28;20423;-90
2021/08/05 23:33:12;;;;;;;74.45;23.38;;;24.70;91.30;;;;;;5097151;28;20103;-88
2021/08/05 23:35:38;;;;;;;70.03;22.27;;;24.70;91.20;;;;;;5097014;28;20462;-87
2021/08/05 23:38:03;;;;;;;45.92;18.25;;;24.60;91.60;;;;;;5096541;28;20020;-88
2021/08/05 23:40:29;;;;;;;31.25;14.65;;;24.60;91.60;;;;;;5096957;28;20467;-88
2021/08/05 23:42:55;;;;;;;27.45;14.93;;;24.60;91.40;;;;;;5097023;28;20518;-90
2021/08/05 23:45:21;;;;;;;23.10;14.23;;;24.60;91.40;;;;;;5096779;28;20047;-89
2021/08/05 23:47:46;;;;;;;20.95;13.10;;;24.50;91.70;;;;;;5096727;28;20462;-86
2021/08/05 23:50:14;;;;;;;16.65;11.70;;;24.50;91.70;;;;;;5096766;28;20466;-86
2021/08/05 23:52:40;;;;;;;16.73;12.02;;;24.60;91.50;;;;;;5096064;28;20458;-86
2021/08/05 23:55:07;;;;;;;14.07;11.38;;;24.60;91.60;;;;;;5096236;28;20028;-86
2021/08/05 23:57:33;;;;;;;16.08;10.88;;;24.60;91.60;;;;;;5096453;28;20025;-86
2021/08/05 23:59:59;;;;;;;14.02;10.65;;;24.60;91.60;;;;;;5095978;28;20073;-86
